Portada
METAR-TAF:

METAR-TAF

Aeroports :

Almagro, Espanya

latitud: 38-57-11N, longitud: 3-44-29W, altitud: 629 m

Observació

L'informe es va fer fa 14 hores i 51 minuts, a les 05:00 UTC
Vent calma
Temperatura 15°C
Humitat 72%
Pressió 1019 hPa
Visibilitat 10 km o més
Escasses núvols a una alçada de 4500 ft

METAR: LEAO 210500Z 00000KT 9999 FEW045 15/10 Q1019

Hora: 21:51 (19:51 UTC)

Pronòstic

L'informe es va fer fa 14 hores i 51 minuts, a les 05:00 UTC
Pronòstic vàlid del 21 a les 06 UTC al 21 a les 15 UTC
Vent 2 kt amb direcció variable
Visibilitat 10 km o més
sense núvols per sota de 1500 mi sense presència de cumulonimbus.
Probabilitat 40% :
Temporalment
l' 21 a les 13 UTC al 21 a les 15 UTC
Escasses núvols a una alçada de 4000 ft, Cumulus congestus.

TAF: LEAO 210500Z 2106/2115 VRB02KT CAVOK PROB40 TEMPO 2113/2115 FEW040TCU

Observacions i pronòstics meteorològics de més de 4000 aeroports (METAR i TAF).

Les estacions disponibles són els punts grocs i vermells al mapa.

Posi el ratolí al punt desitjat per veure el nom de l'estació.

Feu clic per veure les observacions i els pronòstics meteorològics.

Per canviar el mapa: feu clic els botons verds amb una creu de color negre per apropar; al botó verd amb un guió per allunyar la imatge; o en les fletxes verdes per a mapes adjacents.


METAR-TAF: